createdAt,value
2022-09-03T00:02:07.314Z,98865.66
2022-09-03T00:04:47.857Z,98864.56
2022-09-03T00:07:20.562Z,98873.03
2022-09-03T00:09:51.576Z,98866.31
2022-09-03T00:12:24.967Z,98868.34
2022-09-03T00:15:09.818Z,98861.06
2022-09-03T00:17:42.528Z,98862.63
2022-09-03T00:20:32.077Z,98861.78
2022-09-03T00:23:03.816Z,98861.13
2022-09-03T00:25:51.564Z,98866.91
2022-09-03T00:28:25.771Z,98868.31
2022-09-03T00:31:11.952Z,98862.19
2022-09-03T00:33:41.396Z,98859.16
2022-09-03T00:36:15.174Z,98864.75
2022-09-03T00:38:41.970Z,98863.66
2022-09-03T00:41:08.653Z,98861.31
2022-09-03T00:44:11.160Z,98869.72
2022-09-03T00:46:47.122Z,98868.63
2022-09-03T00:49:22.582Z,98868.38
2022-09-03T00:51:52.120Z,98861.66
2022-09-03T00:54:28.541Z,98865.88
2022-09-03T00:57:25.658Z,98859.31
2022-09-03T01:00:00.227Z,98863.38
2022-09-03T01:02:39.206Z,98859.34
2022-09-03T01:05:11.812Z,98868.59
2022-09-03T01:07:46.315Z,98861.72
2022-09-03T01:10:44.659Z,98865.94
2022-09-03T01:13:20.330Z,98867.47
2022-09-03T01:16:36.078Z,98868.19
2022-09-03T01:19:52.221Z,98875.47
2022-09-03T01:22:46.203Z,98871.56
2022-09-03T01:25:36.856Z,98875.44
2022-09-03T01:28:32.959Z,98872.38
2022-09-03T01:31:37.145Z,98869.72
2022-09-03T01:34:22.324Z,98879.38
2022-09-03T01:37:26.645Z,98874.59
2022-09-03T01:40:03.933Z,98883.13
2022-09-03T01:42:40.477Z,98878.78
2022-09-03T01:45:22.654Z,98874.03
2022-09-03T01:48:18.359Z,98881.72
2022-09-03T01:50:58.095Z,98878.22
2022-09-03T01:53:47.048Z,98882.69
2022-09-03T01:56:19.759Z,98877.63
2022-09-03T01:58:55.081Z,98880.41
2022-09-03T02:01:46.675Z,98872.03
2022-09-03T02:04:27.218Z,98876.78
2022-09-03T02:06:57.517Z,98879.56
2022-09-03T02:09:24.541Z,98873.41
2022-09-03T02:12:03.245Z,98877.16
2022-09-03T02:14:30.720Z,98885.41
2022-09-03T02:16:59.325Z,98880.25
2022-09-03T02:19:27.501Z,98883.19
2022-09-03T02:21:56.617Z,98880.06
2022-09-03T02:24:25.137Z,98888.72
2022-09-03T02:26:53.434Z,98880.19
2022-09-03T02:29:21.350Z,98887.59
2022-09-03T02:31:48.210Z,98883.66
2022-09-03T02:34:14.826Z,98880.28
2022-09-03T02:36:45.915Z,98881.69
2022-09-03T02:39:14.267Z,98874.69
2022-09-03T02:41:40.964Z,98881.38
2022-09-03T02:44:30.768Z,98879.44
2022-09-03T02:47:00.486Z,98874.78
2022-09-03T02:49:28.671Z,98867.66
2022-09-03T02:52:05.885Z,98876.81
2022-09-03T02:54:36.037Z,98872.06
2022-09-03T02:57:03.151Z,98871.75
2022-09-03T02:59:29.738Z,98876.47
2022-09-03T03:01:56.403Z,98885.41
2022-09-03T03:04:28.042Z,98887.59
2022-09-03T03:06:54.678Z,98877.84
2022-09-03T03:09:21.231Z,98886.66
2022-09-03T03:11:50.071Z,98890.25
2022-09-03T03:14:18.020Z,98882.84
2022-09-03T03:16:44.756Z,98878.06
2022-09-03T03:19:11.690Z,98872.16
2022-09-03T03:21:38.356Z,98882.50
2022-09-03T03:24:05.051Z,98874.56
2022-09-03T03:26:32.089Z,98878.28
2022-09-03T03:29:05.766Z,98879.75
2022-09-03T03:31:33.488Z,98886.56
2022-09-03T03:34:02.562Z,98882.34
2022-09-03T03:36:31.949Z,98883.44
2022-09-03T03:39:00.366Z,98882.03
2022-09-03T03:41:36.174Z,98884.22
2022-09-03T03:44:05.842Z,98890.03
2022-09-03T03:46:35.241Z,98894.59
2022-09-03T03:49:02.760Z,98899.44
2022-09-03T03:51:30.457Z,98892.47
2022-09-03T03:54:00.180Z,98890.31
2022-09-03T03:56:29.747Z,98887.94
2022-09-03T03:58:56.570Z,98891.56
2022-09-03T04:01:26.134Z,98887.94
2022-09-03T04:03:55.611Z,98887.22
2022-09-03T04:06:23.830Z,98886.63
2022-09-03T04:08:50.951Z,98887.00
2022-09-03T04:11:19.991Z,98879.91
2022-09-03T04:13:47.468Z,98873.06
2022-09-03T04:16:16.551Z,98874.16
2022-09-03T04:18:43.186Z,98882.47
2022-09-03T04:21:30.692Z,98881.03
2022-09-03T04:23:58.461Z,98873.84
2022-09-03T04:26:33.040Z,98873.75
2022-09-03T04:29:02.379Z,98878.31
2022-09-03T04:31:29.333Z,98875.91
2022-09-03T04:33:56.731Z,98871.72
2022-09-03T04:36:25.638Z,98877.22
2022-09-03T04:38:56.976Z,98875.69
2022-09-03T04:41:28.973Z,98870.53
2022-09-03T04:43:57.411Z,98861.63
2022-09-03T04:46:26.250Z,98870.53
2022-09-03T04:48:55.070Z,98873.66
2022-09-03T04:51:24.568Z,98881.84
2022-09-03T04:54:00.279Z,98882.81
2022-09-03T04:56:32.778Z,98874.72
2022-09-03T04:59:02.230Z,98881.84
2022-09-03T05:01:31.285Z,98876.53
2022-09-03T05:03:59.161Z,98875.97
2022-09-03T05:06:27.542Z,98878.50
2022-09-03T05:08:55.598Z,98877.88
2022-09-03T05:11:23.614Z,98882.81
2022-09-03T05:13:52.149Z,98883.78
2022-09-03T05:16:19.770Z,98881.13
2022-09-03T05:18:47.064Z,98883.78
2022-09-03T05:21:16.366Z,98887.28
2022-09-03T05:23:45.557Z,98879.34
2022-09-03T05:26:17.710Z,98884.38
2022-09-03T05:28:45.356Z,98881.59
2022-09-03T05:31:16.547Z,98885.09
2022-09-03T05:33:45.768Z,98884.13
2022-09-03T05:36:16.053Z,98889.28
2022-09-03T05:38:43.550Z,98887.13
2022-09-03T05:41:11.776Z,98894.81
2022-09-03T05:43:39.111Z,98896.59
2022-09-03T05:46:11.407Z,98894.56
2022-09-03T05:48:40.116Z,98897.69
2022-09-03T05:51:08.985Z,98888.50
2022-09-03T05:53:38.010Z,98893.56
2022-09-03T05:56:07.528Z,98895.72
2022-09-03T05:58:34.817Z,98892.56
2022-09-03T06:01:10.511Z,98894.72
2022-09-03T06:03:37.476Z,98887.78
2022-09-03T06:06:05.463Z,98887.16
2022-09-03T06:08:32.103Z,98893.41
2022-09-03T06:11:00.174Z,98889.25
2022-09-03T06:13:26.723Z,98890.06
2022-09-03T06:15:57.995Z,98890.94
2022-09-03T06:18:26.656Z,98885.59
2022-09-03T06:21:11.511Z,98889.75
2022-09-03T06:23:41.044Z,98888.56
2022-09-03T06:26:14.608Z,98884.44
2022-09-03T06:28:44.415Z,98885.91
2022-09-03T06:31:13.598Z,98884.81
2022-09-03T06:33:41.856Z,98883.03
2022-09-03T06:36:11.043Z,98890.06
2022-09-03T06:38:38.197Z,98888.25
2022-09-03T06:41:23.828Z,98882.38
2022-09-03T06:43:52.036Z,98873.44
2022-09-03T06:46:21.767Z,98869.97
2022-09-03T06:48:51.693Z,98869.00
2022-09-03T06:51:20.619Z,98871.81
2022-09-03T06:53:49.864Z,98878.41
2022-09-03T06:56:19.543Z,98875.19
2022-09-03T06:58:48.707Z,98872.50
2022-09-03T07:01:17.862Z,98863.53
2022-09-03T07:03:45.921Z,98862.00
2022-09-03T07:06:18.064Z,98863.09
2022-09-03T07:08:46.374Z,98871.75
2022-09-03T07:11:19.649Z,98873.38
2022-09-03T07:13:48.413Z,98870.56
2022-09-03T07:16:36.613Z,98873.03
2022-09-03T07:19:05.354Z,98872.16
2022-09-03T07:21:34.211Z,98873.44
2022-09-03T07:24:02.395Z,98869.31
2022-09-03T07:26:31.028Z,98867.31
2022-09-03T07:28:58.500Z,98868.25
2022-09-03T07:31:28.537Z,98860.84
2022-09-03T07:33:58.873Z,98858.66
2022-09-03T07:36:28.703Z,98864.13
2022-09-03T07:38:58.811Z,98861.44
2022-09-03T07:41:28.452Z,98855.78
2022-09-03T07:43:57.150Z,98855.97
2022-09-03T07:46:26.504Z,98854.59
2022-09-03T07:48:55.404Z,98847.72
2022-09-03T07:51:26.644Z,98857.59
2022-09-03T07:53:57.656Z,98855.13
2022-09-03T07:56:25.711Z,98858.41
2022-09-03T07:58:52.641Z,98856.25
2022-09-03T08:01:20.953Z,98849.38
2022-09-03T08:03:49.380Z,98845.69
2022-09-03T08:06:18.819Z,98841.88
2022-09-03T08:08:45.722Z,98846.66
2022-09-03T08:11:21.600Z,98848.25
2022-09-03T08:13:57.634Z,98847.25
2022-09-03T08:16:24.350Z,98845.13
2022-09-03T08:18:51.273Z,98845.66
2022-09-03T08:21:19.478Z,98842.47
2022-09-03T08:23:52.321Z,98847.91
2022-09-03T08:26:20.540Z,98841.59
2022-09-03T08:28:47.544Z,98839.13
2022-09-03T08:31:21.442Z,98841.88
2022-09-03T08:33:50.804Z,98837.47
2022-09-03T08:36:22.960Z,98832.22
2022-09-03T08:38:55.049Z,98838.84
2022-09-03T08:41:46.567Z,98833.94
2022-09-03T08:44:20.044Z,98831.91
2022-09-03T08:46:46.603Z,98836.38
2022-09-03T08:49:17.233Z,98832.25
2022-09-03T08:51:48.021Z,98834.63
2022-09-03T08:54:16.062Z,98822.44
2022-09-03T08:56:43.059Z,98823.75
2022-09-03T08:59:10.209Z,98832.81
2022-09-03T09:02:19.339Z,98825.59
2022-09-03T09:05:19.388Z,98826.50
2022-09-03T09:08:17.992Z,98818.31
2022-09-03T09:10:48.442Z,98820.81
2022-09-03T09:13:31.753Z,98820.19
2022-09-03T09:16:29.282Z,98821.22
2022-09-03T09:19:04.683Z,98816.78
2022-09-03T09:21:46.788Z,98813.59
2022-09-03T09:24:26.416Z,98814.03
2022-09-03T09:26:59.266Z,98810.06
2022-09-03T09:29:33.384Z,98815.28
2022-09-03T09:32:00.044Z,98805.13
2022-09-03T09:34:27.802Z,98801.06
2022-09-03T09:36:56.068Z,98793.03
2022-09-03T09:39:23.309Z,98797.28
2022-09-03T09:42:11.266Z,98793.16
2022-09-03T09:44:39.737Z,98783.47
2022-09-03T09:47:38.789Z,98786.31
2022-09-03T09:50:25.006Z,98782.72
2022-09-03T09:53:16.353Z,98777.84
2022-09-03T09:55:54.605Z,98779.41
2022-09-03T09:58:23.980Z,98777.22
2022-09-03T10:01:03.305Z,98775.28
2022-09-03T10:03:35.670Z,98772.75
2022-09-03T10:06:26.149Z,98772.50
2022-09-03T10:09:05.198Z,98771.69
2022-09-03T10:11:34.777Z,98768.63
2022-09-03T10:14:02.894Z,98757.88
2022-09-03T10:16:36.613Z,98747.50
2022-09-03T10:19:16.971Z,98753.34
2022-09-03T10:22:09.814Z,98745.47
2022-09-03T10:24:41.584Z,98739.66
2022-09-03T10:27:13.044Z,98734.88
2022-09-03T10:29:41.761Z,98733.84
2022-09-03T10:32:24.059Z,98726.53
2022-09-03T10:35:20.452Z,98726.69
2022-09-03T10:38:19.008Z,98724.97
2022-09-03T10:41:20.080Z,98720.94
2022-09-03T10:43:46.579Z,98730.34
2022-09-03T10:46:24.351Z,98733.63
2022-09-03T10:49:10.658Z,98727.88
2022-09-03T10:51:55.141Z,98728.31
2022-09-03T10:54:23.105Z,98726.63
2022-09-03T10:57:14.118Z,98714.78
2022-09-03T11:00:06.360Z,98714.78
2022-09-03T11:03:12.634Z,98721.91
2022-09-03T11:06:15.239Z,98713.94
2022-09-03T11:08:49.587Z,98718.22
2022-09-03T11:11:32.011Z,98704.34
2022-09-03T11:14:04.773Z,98711.22
2022-09-03T11:16:34.638Z,98706.28
2022-09-03T11:19:05.882Z,98705.59
2022-09-03T11:21:36.602Z,98704.63
2022-09-03T11:24:14.849Z,98695.78
2022-09-03T11:26:46.044Z,98698.19
2022-09-03T11:29:30.070Z,98693.53
2022-09-03T11:32:10.930Z,98697.63
2022-09-03T11:34:54.501Z,98696.13
2022-09-03T11:37:29.556Z,98696.75
2022-09-03T11:39:58.915Z,98695.19
2022-09-03T11:42:36.914Z,98685.28
2022-09-03T11:45:28.832Z,98685.50
2022-09-03T11:47:56.371Z,98694.16
2022-09-03T11:50:28.460Z,98680.91
2022-09-03T11:53:08.861Z,98682.34
2022-09-03T11:55:53.294Z,98682.19
2022-09-03T11:58:29.582Z,98694.06
2022-09-03T12:00:58.821Z,98690.28
2022-09-03T12:03:28.591Z,98688.28
2022-09-03T12:06:20.124Z,98662.91
2022-09-03T12:09:14.503Z,98662.22
2022-09-03T12:12:13.939Z,98656.56
2022-09-03T12:15:02.901Z,98676.19
2022-09-03T12:17:35.531Z,98667.16
2022-09-03T12:20:02.216Z,98663.44
2022-09-03T12:22:31.200Z,98660.50
2022-09-03T12:25:08.934Z,98660.63
2022-09-03T12:27:40.230Z,98659.63
2022-09-03T12:30:16.905Z,98666.38
2022-09-03T12:32:43.897Z,98666.16
2022-09-03T12:38:08.476Z,98658.44
2022-09-03T12:48:40.301Z,98667.09
2022-09-03T12:53:54.305Z,98661.47
2022-09-03T12:56:22.369Z,98657.69
2022-09-03T12:59:02.317Z,98663.38
2022-09-03T13:01:37.526Z,98663.28
2022-09-03T13:04:15.481Z,98655.91
2022-09-03T13:06:54.385Z,98650.63
2022-09-03T13:09:26.941Z,98648.88
2022-09-03T13:11:55.561Z,98652.78
2022-09-03T13:14:22.478Z,98656.94
2022-09-03T13:17:33.098Z,98648.78
2022-09-03T13:20:05.490Z,98647.44
2022-09-03T13:22:38.530Z,98641.25
2022-09-03T13:25:29.824Z,98643.63
2022-09-03T13:28:16.942Z,98651.28
2022-09-03T13:31:10.033Z,98641.78
2022-09-03T13:33:51.711Z,98653.34
2022-09-03T13:36:24.342Z,98651.06
2022-09-03T13:38:50.890Z,98654.69
2022-09-03T13:41:43.819Z,98644.88
2022-09-03T13:44:24.839Z,98647.09
2022-09-03T13:46:56.637Z,98647.84
2022-09-03T13:50:21.028Z,98648.44
2022-09-03T13:52:57.399Z,98649.88
2022-09-03T13:55:42.886Z,98651.53
2022-09-03T13:58:29.593Z,98654.81
2022-09-03T14:00:59.111Z,98651.78
2022-09-03T14:03:26.380Z,98656.94
2022-09-03T14:06:08.046Z,98659.34
2022-09-03T14:08:54.319Z,98658.22
2022-09-03T14:11:33.074Z,98661.91
2022-09-03T14:14:28.860Z,98665.44
2022-09-03T14:17:15.315Z,98661.19
2022-09-03T14:20:00.412Z,98671.06
2022-09-03T14:22:40.958Z,98668.31
2022-09-03T14:25:21.379Z,98673.56
2022-09-03T14:27:49.553Z,98682.38
2022-09-03T14:30:31.963Z,98681.47
2022-09-03T14:33:13.594Z,98688.41
2022-09-03T14:36:18.723Z,98698.78
2022-09-03T14:39:08.506Z,98699.31
2022-09-03T14:41:51.227Z,98708.06
2022-09-03T14:44:17.765Z,98703.94
2022-09-03T14:47:12.342Z,98708.91
2022-09-03T14:50:17.604Z,98714.72
2022-09-03T14:52:57.805Z,98719.38
2022-09-03T14:55:52.005Z,98742.09
2022-09-03T14:58:39.704Z,98757.72
2022-09-03T15:01:38.989Z,98762.72
2022-09-03T15:04:24.468Z,98759.72
2022-09-03T15:07:09.677Z,98762.19
2022-09-03T15:10:02.531Z,98761.16
2022-09-03T15:12:37.595Z,98756.72
2022-09-03T15:15:24.779Z,98760.00
2022-09-03T15:18:03.774Z,98764.34
2022-09-03T15:21:02.520Z,98774.34
2022-09-03T15:23:47.187Z,98771.88
2022-09-03T15:26:25.901Z,98780.31
2022-09-03T15:29:18.760Z,98782.34
2022-09-03T15:31:51.464Z,98783.38
2022-09-03T15:34:23.694Z,98789.16
2022-09-03T15:36:55.497Z,98787.63
2022-09-03T15:39:31.096Z,98790.34
2022-09-03T15:42:01.584Z,98786.47
2022-09-03T15:44:43.725Z,98783.84
2022-09-03T15:47:28.174Z,98790.41
2022-09-03T15:50:01.750Z,98791.34
2022-09-03T15:52:46.300Z,98786.88
2022-09-03T15:55:37.191Z,98786.41
2022-09-03T15:58:22.023Z,98788.56
2022-09-03T16:01:00.116Z,98790.88
2022-09-03T16:03:47.271Z,98795.16
2022-09-03T16:06:44.788Z,98797.75
2022-09-03T16:09:24.285Z,98787.66
2022-09-03T16:12:09.641Z,98799.91
2022-09-03T16:14:44.575Z,98792.19
2022-09-03T16:17:26.177Z,98791.16
2022-09-03T16:20:01.221Z,98796.81
2022-09-03T16:22:30.920Z,98800.66
2022-09-03T16:25:13.115Z,98793.94
2022-09-03T16:28:08.062Z,98798.50
2022-09-03T16:30:46.872Z,98791.66
2022-09-03T16:33:23.104Z,98791.75
2022-09-03T16:36:05.008Z,98787.22
2022-09-03T16:38:45.864Z,98787.47
2022-09-03T16:41:19.861Z,98788.56
2022-09-03T16:43:55.143Z,98785.63
2022-09-03T16:46:35.604Z,98790.63
2022-09-03T16:49:05.007Z,98794.50
2022-09-03T16:51:50.370Z,98799.66
2022-09-03T16:54:46.248Z,98792.44
2022-09-03T16:57:24.476Z,98789.66
2022-09-03T17:00:02.681Z,98788.81
2022-09-03T17:02:53.803Z,98787.97
2022-09-03T17:05:38.591Z,98781.81
2022-09-03T17:08:39.070Z,98792.44
2022-09-03T17:11:32.553Z,98794.84
2022-09-03T17:14:18.608Z,98792.34
2022-09-03T17:17:03.832Z,98789.38
2022-09-03T17:20:04.248Z,98791.38
2022-09-03T17:22:49.892Z,98797.47
2022-09-03T17:25:22.940Z,98795.47
2022-09-03T17:27:49.437Z,98797.84
2022-09-03T17:30:42.286Z,98793.44
2022-09-03T17:33:36.342Z,98794.81
2022-09-03T17:36:14.170Z,98788.78
2022-09-03T17:38:50.462Z,98792.28
2022-09-03T17:41:34.285Z,98791.78
2022-09-03T17:44:39.215Z,98789.09
2022-09-03T17:47:52.043Z,98791.81
2022-09-03T17:50:25.934Z,98793.16
2022-09-03T17:52:58.592Z,98798.53
2022-09-03T17:55:35.262Z,98804.59
2022-09-03T17:58:30.268Z,98811.31
2022-09-03T18:01:20.433Z,98817.69
2022-09-03T18:03:54.957Z,98815.00
2022-09-03T18:06:57.348Z,98829.31
2022-09-03T18:09:37.903Z,98822.44
2022-09-03T18:12:08.859Z,98834.72
2022-09-03T18:14:57.945Z,98839.06
2022-09-03T18:17:35.016Z,98837.56
2022-09-03T18:20:32.900Z,98848.28
2022-09-03T18:23:26.364Z,98841.63
2022-09-03T18:26:38.920Z,98841.13
2022-09-03T18:29:30.998Z,98844.00
2022-09-03T18:32:15.858Z,98847.69
2022-09-03T18:35:01.470Z,98852.19
2022-09-03T18:37:46.888Z,98858.59
2022-09-03T18:40:42.079Z,98850.91
2022-09-03T18:43:40.354Z,98859.66
2022-09-03T18:50:12.196Z,98862.88
2022-09-03T18:53:10.400Z,98863.19
2022-09-03T18:56:34.204Z,98859.88
2022-09-03T18:59:30.623Z,98857.53
2022-09-03T19:02:15.529Z,98857.69
2022-09-03T19:05:35.541Z,98865.41
2022-09-03T19:08:38.096Z,98860.22
2022-09-03T19:11:44.658Z,98862.59
2022-09-03T19:15:09.520Z,98862.97
2022-09-03T19:18:49.032Z,98867.59
2022-09-03T19:21:40.075Z,98865.94
2022-09-03T19:24:25.661Z,98865.09
2022-09-03T19:27:53.408Z,98871.81
2022-09-03T19:31:02.135Z,98879.16
2022-09-03T19:34:12.719Z,98880.34
2022-09-03T19:37:29.808Z,98881.19
2022-09-03T19:40:50.161Z,98880.53
2022-09-03T19:43:44.534Z,98869.13
2022-09-03T19:46:44.938Z,98880.34
2022-09-03T19:49:36.375Z,98877.69
2022-09-03T19:53:06.005Z,98885.38
2022-09-03T19:55:54.964Z,98891.06
2022-09-03T19:58:44.245Z,98889.38
2022-09-03T20:01:31.275Z,98889.91
2022-09-03T20:04:21.880Z,98880.34
2022-09-03T20:07:06.688Z,98889.22
2022-09-03T20:10:00.060Z,98885.72
2022-09-03T20:12:31.155Z,98889.75
2022-09-03T20:14:57.691Z,98888.06
2022-09-03T20:17:27.915Z,98893.09
2022-09-03T20:20:09.885Z,98886.38
2022-09-03T20:22:57.785Z,98889.75
2022-09-03T20:25:43.015Z,98891.56
2022-09-03T20:28:37.397Z,98896.78
2022-09-03T20:31:31.745Z,98896.25
2022-09-03T20:34:10.179Z,98895.41
2022-09-03T20:37:10.723Z,98897.09
2022-09-03T20:39:49.250Z,98898.78
2022-09-03T20:42:21.850Z,98902.44
2022-09-03T20:45:20.787Z,98909.81
2022-09-03T20:48:08.262Z,98901.97
2022-09-03T20:50:51.032Z,98906.63
2022-09-03T20:53:43.495Z,98905.63
2022-09-03T20:56:46.639Z,98913.34
2022-09-03T20:59:22.167Z,98901.13
2022-09-03T21:02:00.336Z,98908.31
2022-09-03T21:05:06.341Z,98905.47
2022-09-03T21:07:48.262Z,98907.13
2022-09-03T21:10:39.686Z,98909.97
2022-09-03T21:13:17.239Z,98907.31
2022-09-03T21:16:26.991Z,98907.47
2022-09-03T21:19:11.887Z,98903.97
2022-09-03T21:22:04.561Z,98902.47
2022-09-03T21:24:37.594Z,98896.75
2022-09-03T21:27:10.833Z,98899.44
2022-09-03T21:29:53.236Z,98903.47
2022-09-03T21:32:25.148Z,98907.47
2022-09-03T21:35:03.818Z,98918.19
2022-09-03T21:37:34.956Z,98920.84
2022-09-03T21:40:01.680Z,98921.84
2022-09-03T21:42:47.435Z,98916.50
2022-09-03T21:45:20.183Z,98919.19
2022-09-03T21:47:58.350Z,98909.78
2022-09-03T21:50:56.256Z,98914.34
2022-09-03T21:53:50.319Z,98925.50
2022-09-03T21:56:52.050Z,98925.84
2022-09-03T21:59:25.454Z,98933.19
2022-09-03T22:02:03.551Z,98931.53
2022-09-03T22:04:30.865Z,98933.19
2022-09-03T22:07:19.547Z,98935.19
2022-09-03T22:10:06.621Z,98930.69
2022-09-03T22:13:00.826Z,98934.69
2022-09-03T22:15:28.584Z,98932.88
2022-09-03T22:18:23.682Z,98932.19
2022-09-03T22:21:20.398Z,98932.53
2022-09-03T22:23:46.901Z,98935.00
2022-09-03T22:26:26.967Z,98930.84
2022-09-03T22:29:32.061Z,98933.00
2022-09-03T22:32:02.993Z,98926.16
2022-09-03T22:35:00.149Z,98927.66
2022-09-03T22:37:35.800Z,98925.44
2022-09-03T22:40:34.746Z,98934.81
2022-09-03T22:43:04.368Z,98934.59
2022-09-03T22:46:02.285Z,98941.41
2022-09-03T22:48:50.801Z,98946.25
2022-09-03T22:51:21.629Z,98936.88
2022-09-03T22:54:16.361Z,98942.03
2022-09-03T22:56:43.884Z,98947.38
2022-09-03T22:59:17.149Z,98950.38
2022-09-03T23:02:00.755Z,98947.03
2022-09-03T23:04:54.885Z,98947.34
2022-09-03T23:07:34.962Z,98948.00
2022-09-03T23:10:24.439Z,98956.00
2022-09-03T23:13:14.415Z,98949.44
2022-09-03T23:15:42.383Z,98948.25
2022-09-03T23:18:16.679Z,98946.22
2022-09-03T23:21:11.409Z,98948.88
2022-09-03T23:23:44.181Z,98953.19
2022-09-03T23:26:29.176Z,98956.47
2022-09-03T23:29:16.897Z,98952.78
2022-09-03T23:31:43.747Z,98954.78
2022-09-03T23:34:12.201Z,98966.78
2022-09-03T23:37:32.435Z,98963.06
2022-09-03T23:40:16.215Z,98954.00
2022-09-03T23:43:37.413Z,98965.28
2022-09-03T23:46:27.012Z,98969.94
2022-09-03T23:49:26.082Z,98969.78
2022-09-03T23:52:32.724Z,98969.25
2022-09-03T23:55:13.194Z,98967.59
2022-09-03T23:58:09.351Z,98973.78
